Time;durP1;ratioP1;P1;durP2;ratioP2;P2;SDS_P1;SDS_P2;PMS_P1;PMS_P2;Temp;Humidity;BMP_temperature;BMP_pressure;BME280_temperature;BME280_humidity;BME280_pressure;Samples;Min_cycle;Max_cycle;Signal;HPM_P1;HPM_P2
2023/02/10 00:00:00;;;;;;;2.9;2.8;;;;;;;1.8;100.0;103320;;;;
2023/02/10 00:01:02;;;;;;;2.9;2.8;;;;;;;1.8;100.0;103320;;;;
2023/02/10 00:02:00;;;;;;;2.9;2.8;;;;;;;1.8;100.0;103320;;;;
2023/02/10 00:03:00;;;;;;;2.9;2.8;;;;;;;1.8;100.0;103320;;;;
2023/02/10 00:04:00;;;;;;;2.9;2.8;;;;;;;1.8;100.0;103320;;;;
2023/02/10 00:05:00;;;;;;;2.9;2.8;;;;;;;1.7;100.0;103320;;;;
2023/02/10 00:06:00;;;;;;;2.9;2.8;;;;;;;1.7;100.0;103320;;;;
2023/02/10 00:07:00;;;;;;;2.9;2.8;;;;;;;1.7;100.0;103330;;;;
2023/02/10 00:08:00;;;;;;;2.9;2.8;;;;;;;1.7;100.0;103330;;;;
2023/02/10 00:09:01;;;;;;;2.9;2.8;;;;;;;1.7;100.0;103330;;;;
2023/02/10 00:10:00;;;;;;;2.9;2.8;;;;;;;1.7;100.0;103330;;;;
2023/02/10 00:11:01;;;;;;;2.9;2.8;;;;;;;1.7;100.0;103330;;;;
2023/02/10 00:12:00;;;;;;;2.9;2.8;;;;;;;1.7;100.0;103330;;;;
2023/02/10 00:13:00;;;;;;;2.9;2.8;;;;;;;1.6;100.0;103340;;;;
2023/02/10 00:14:00;;;;;;;2.9;2.8;;;;;;;1.6;100.0;103340;;;;
2023/02/10 00:15:00;;;;;;;2.9;2.8;;;;;;;1.6;100.0;103330;;;;
2023/02/10 00:16:01;;;;;;;2.9;2.8;;;;;;;1.6;100.0;103330;;;;
2023/02/10 00:17:00;;;;;;;2.9;2.8;;;;;;;1.5;100.0;103330;;;;
2023/02/10 00:18:00;;;;;;;2.9;2.8;;;;;;;1.5;100.0;103330;;;;
2023/02/10 00:19:00;;;;;;;2.9;2.8;;;;;;;1.5;100.0;103330;;;;
2023/02/10 00:20:00;;;;;;;3.2;3.1;;;;;;;1.5;100.0;103330;;;;
2023/02/10 00:21:08;;;;;;;3.2;3.1;;;;;;;1.5;100.0;103340;;;;
2023/02/10 00:22:02;;;;;;;3.2;3.1;;;;;;;1.5;100.0;103340;;;;
2023/02/10 00:23:00;;;;;;;3.2;3.1;;;;;;;1.5;100.0;103350;;;;
2023/02/10 00:24:00;;;;;;;3.2;3.1;;;;;;;1.5;100.0;103350;;;;
2023/02/10 00:25:00;;;;;;;3.2;3.1;;;;;;;1.4;100.0;103340;;;;
2023/02/10 00:26:02;;;;;;;3.2;3.1;;;;;;;1.4;100.0;103340;;;;
2023/02/10 00:27:01;;;;;;;3.2;3.1;;;;;;;1.4;100.0;103340;;;;
2023/02/10 00:28:00;;;;;;;3.2;3.1;;;;;;;1.4;100.0;103340;;;;
2023/02/10 00:29:00;;;;;;;3.2;3.1;;;;;;;1.4;100.0;103340;;;;
2023/02/10 00:30:00;;;;;;;3.2;3.1;;;;;;;1.4;100.0;103340;;;;
2023/02/10 00:31:08;;;;;;;3.2;3.1;;;;;;;1.3;100.0;103330;;;;
2023/02/10 00:32:00;;;;;;;3.2;3.1;;;;;;;1.3;100.0;103330;;;;
2023/02/10 00:33:00;;;;;;;3.2;3.1;;;;;;;1.4;100.0;103340;;;;
2023/02/10 00:34:00;;;;;;;3.2;3.1;;;;;;;1.4;100.0;103340;;;;
2023/02/10 00:35:00;;;;;;;3.2;3.1;;;;;;;1.3;100.0;103350;;;;
2023/02/10 00:36:04;;;;;;;3.2;3.1;;;;;;;1.3;100.0;103350;;;;
2023/02/10 00:37:00;;;;;;;3.2;3.1;;;;;;;1.2;100.0;103340;;;;
2023/02/10 00:38:00;;;;;;;3.2;3.1;;;;;;;1.2;100.0;103340;;;;
2023/02/10 00:39:00;;;;;;;3.2;3.1;;;;;;;1.2;100.0;103340;;;;
2023/02/10 00:40:00;;;;;;;3.1;3.0;;;;;;;1.2;100.0;103340;;;;
2023/02/10 00:41:02;;;;;;;3.1;3.0;;;;;;;1.2;100.0;103350;;;;
2023/02/10 00:42:00;;;;;;;3.1;3.0;;;;;;;1.2;100.0;103350;;;;
2023/02/10 00:43:00;;;;;;;3.1;3.0;;;;;;;1.1;100.0;103340;;;;
2023/02/10 00:44:00;;;;;;;3.1;3.0;;;;;;;1.1;100.0;103340;;;;
2023/02/10 00:45:00;;;;;;;3.1;3.0;;;;;;;1.1;100.0;103350;;;;
2023/02/10 00:46:00;;;;;;;3.1;3.0;;;;;;;1.1;100.0;103350;;;;
2023/02/10 00:47:00;;;;;;;3.1;3.0;;;;;;;1.1;100.0;103340;;;;
2023/02/10 00:48:00;;;;;;;3.1;3.0;;;;;;;1.1;100.0;103340;;;;
2023/02/10 00:49:00;;;;;;;3.1;3.0;;;;;;;1.0;100.0;103350;;;;
2023/02/10 00:50:00;;;;;;;3.1;3.0;;;;;;;1.0;100.0;103350;;;;
2023/02/10 00:51:00;;;;;;;3.1;3.0;;;;;;;1.1;100.0;103340;;;;
2023/02/10 00:52:00;;;;;;;3.1;3.0;;;;;;;1.1;100.0;103340;;;;
2023/02/10 00:53:00;;;;;;;3.1;3.0;;;;;;;1.0;100.0;103340;;;;
2023/02/10 00:54:00;;;;;;;3.1;3.0;;;;;;;1.0;100.0;103340;;;;
2023/02/10 00:55:00;;;;;;;3.1;3.0;;;;;;;0.9;100.0;103340;;;;
2023/02/10 00:56:00;;;;;;;3.1;3.0;;;;;;;0.9;100.0;103340;;;;
2023/02/10 00:57:00;;;;;;;3.1;3.0;;;;;;;0.9;100.0;103340;;;;
2023/02/10 00:58:00;;;;;;;3.1;3.0;;;;;;;0.9;100.0;103340;;;;
2023/02/10 00:59:00;;;;;;;3.1;3.0;;;;;;;0.9;100.0;103350;;;;
2023/02/10 01:00:00;;;;;;;3.0;2.9;;;;;;;0.9;100.0;103350;;;;
2023/02/10 01:01:00;;;;;;;3.0;2.9;;;;;;;1.0;100.0;103350;;;;
2023/02/10 01:02:00;;;;;;;3.0;2.9;;;;;;;1.0;100.0;103350;;;;
2023/02/10 01:03:00;;;;;;;3.0;2.9;;;;;;;0.9;100.0;103350;;;;
2023/02/10 01:04:00;;;;;;;3.0;2.9;;;;;;;0.9;100.0;103350;;;;
2023/02/10 01:05:00;;;;;;;3.0;2.9;;;;;;;0.8;100.0;103350;;;;
2023/02/10 01:06:01;;;;;;;3.0;2.9;;;;;;;0.8;100.0;103350;;;;
2023/02/10 01:07:00;;;;;;;3.0;2.9;;;;;;;0.9;100.0;103360;;;;
2023/02/10 01:08:00;;;;;;;3.0;2.9;;;;;;;0.9;100.0;103360;;;;
2023/02/10 01:09:00;;;;;;;3.0;2.9;;;;;;;0.8;100.0;103360;;;;
2023/02/10 01:10:00;;;;;;;3.0;2.9;;;;;;;0.8;100.0;103360;;;;
2023/02/10 01:11:02;;;;;;;3.0;2.9;;;;;;;0.8;100.0;103360;;;;
2023/02/10 01:12:00;;;;;;;3.0;2.9;;;;;;;0.8;100.0;103360;;;;
2023/02/10 01:13:02;;;;;;;3.0;2.9;;;;;;;0.8;100.0;103360;;;;
2023/02/10 01:14:00;;;;;;;3.0;2.9;;;;;;;0.8;100.0;103360;;;;
2023/02/10 01:15:00;;;;;;;3.0;2.9;;;;;;;0.8;100.0;103360;;;;
2023/02/10 01:16:01;;;;;;;3.0;2.9;;;;;;;0.8;100.0;103360;;;;
2023/02/10 01:17:00;;;;;;;3.0;2.9;;;;;;;0.8;100.0;103370;;;;
2023/02/10 01:18:00;;;;;;;3.0;2.9;;;;;;;0.8;100.0;103370;;;;
2023/02/10 01:19:00;;;;;;;3.0;2.9;;;;;;;0.7;100.0;103370;;;;
2023/02/10 01:20:00;;;;;;;3.3;3.2;;;;;;;0.7;100.0;103370;;;;
2023/02/10 01:21:05;;;;;;;3.3;3.2;;;;;;;0.7;100.0;103370;;;;
2023/02/10 01:22:00;;;;;;;3.3;3.2;;;;;;;0.7;100.0;103370;;;;
2023/02/10 01:23:00;;;;;;;3.3;3.2;;;;;;;0.7;100.0;103370;;;;
2023/02/10 01:24:00;;;;;;;3.3;3.2;;;;;;;0.7;100.0;103370;;;;
2023/02/10 01:25:00;;;;;;;3.3;3.2;;;;;;;0.7;100.0;103360;;;;
2023/02/10 01:26:00;;;;;;;3.3;3.2;;;;;;;0.7;100.0;103360;;;;
2023/02/10 01:27:00;;;;;;;3.3;3.2;;;;;;;0.6;100.0;103370;;;;
2023/02/10 01:28:00;;;;;;;3.3;3.2;;;;;;;0.6;100.0;103370;;;;
2023/02/10 01:29:00;;;;;;;3.3;3.2;;;;;;;0.6;100.0;103370;;;;
2023/02/10 01:30:01;;;;;;;3.3;3.2;;;;;;;0.6;100.0;103370;;;;
2023/02/10 01:31:04;;;;;;;3.3;3.2;;;;;;;0.6;100.0;103380;;;;
2023/02/10 01:32:00;;;;;;;3.3;3.2;;;;;;;0.6;100.0;103380;;;;
2023/02/10 01:33:00;;;;;;;3.3;3.2;;;;;;;0.5;100.0;103380;;;;
2023/02/10 01:34:01;;;;;;;3.3;3.2;;;;;;;0.5;100.0;103380;;;;
2023/02/10 01:35:00;;;;;;;3.3;3.2;;;;;;;0.6;100.0;103380;;;;
2023/02/10 01:36:04;;;;;;;3.3;3.2;;;;;;;0.6;100.0;103380;;;;
2023/02/10 01:37:00;;;;;;;3.3;3.2;;;;;;;0.6;100.0;103380;;;;
2023/02/10 01:38:00;;;;;;;3.3;3.2;;;;;;;0.6;100.0;103380;;;;
2023/02/10 01:39:00;;;;;;;3.3;3.2;;;;;;;0.6;100.0;103370;;;;
2023/02/10 01:40:00;;;;;;;3.1;3.0;;;;;;;0.6;100.0;103370;;;;
2023/02/10 01:41:00;;;;;;;3.1;3.0;;;;;;;0.5;100.0;103370;;;;
2023/02/10 01:42:00;;;;;;;3.1;3.0;;;;;;;0.5;100.0;103370;;;;
2023/02/10 01:43:00;;;;;;;3.1;3.0;;;;;;;0.5;100.0;103380;;;;
2023/02/10 01:44:01;;;;;;;3.1;3.0;;;;;;;0.5;100.0;103380;;;;
2023/02/10 01:45:10;;;;;;;3.1;3.0;;;;;;;0.5;100.0;103380;;;;
2023/02/10 01:46:00;;;;;;;3.1;3.0;;;;;;;0.5;100.0;103380;;;;
2023/02/10 01:47:00;;;;;;;3.1;3.0;;;;;;;0.5;100.0;103380;;;;
2023/02/10 01:48:00;;;;;;;3.1;3.0;;;;;;;0.5;100.0;103380;;;;
2023/02/10 01:49:01;;;;;;;3.1;3.0;;;;;;;0.5;100.0;103370;;;;
2023/02/10 01:50:00;;;;;;;3.1;3.0;;;;;;;0.5;100.0;103370;;;;
2023/02/10 01:51:04;;;;;;;3.1;3.0;;;;;;;0.5;100.0;103370;;;;
2023/02/10 01:52:03;;;;;;;3.1;3.0;;;;;;;0.5;100.0;103370;;;;
2023/02/10 01:53:01;;;;;;;3.1;3.0;;;;;;;0.4;100.0;103370;;;;
2023/02/10 01:54:00;;;;;;;3.1;3.0;;;;;;;0.4;100.0;103370;;;;
2023/02/10 01:55:05;;;;;;;3.1;3.0;;;;;;;0.4;100.0;103360;;;;
2023/02/10 01:56:01;;;;;;;3.1;3.0;;;;;;;0.4;100.0;103360;;;;
2023/02/10 01:57:01;;;;;;;3.1;3.0;;;;;;;0.4;100.0;103360;;;;
2023/02/10 01:58:02;;;;;;;3.1;3.0;;;;;;;0.4;100.0;103360;;;;
2023/02/10 01:59:00;;;;;;;3.1;3.0;;;;;;;0.4;100.0;103360;;;;
2023/02/10 02:00:01;;;;;;;3.5;3.4;;;;;;;0.4;100.0;103360;;;;
2023/02/10 02:01:00;;;;;;;3.5;3.4;;;;;;;0.3;100.0;103350;;;;
2023/02/10 02:02:06;;;;;;;3.5;3.4;;;;;;;0.3;100.0;103350;;;;
2023/02/10 02:03:01;;;;;;;3.5;3.4;;;;;;;0.4;100.0;103350;;;;
2023/02/10 02:04:01;;;;;;;3.5;3.4;;;;;;;0.4;100.0;103350;;;;
2023/02/10 02:05:01;;;;;;;3.5;3.4;;;;;;;0.3;100.0;103350;;;;
2023/02/10 02:06:00;;;;;;;3.5;3.4;;;;;;;0.3;100.0;103350;;;;
2023/02/10 02:07:00;;;;;;;3.5;3.4;;;;;;;0.2;100.0;103350;;;;
2023/02/10 02:08:10;;;;;;;3.5;3.4;;;;;;;0.2;100.0;103350;;;;
2023/02/10 02:09:01;;;;;;;3.5;3.4;;;;;;;0.3;100.0;103350;;;;
2023/02/10 02:10:01;;;;;;;3.5;3.4;;;;;;;0.3;100.0;103350;;;;
2023/02/10 02:11:03;;;;;;;3.5;3.4;;;;;;;0.3;100.0;103360;;;;
2023/02/10 02:12:10;;;;;;;3.5;3.4;;;;;;;0.3;100.0;103360;;;;
2023/02/10 02:13:06;;;;;;;3.5;3.4;;;;;;;0.2;100.0;103360;;;;
2023/02/10 02:14:10;;;;;;;3.5;3.4;;;;;;;0.2;100.0;103360;;;;
2023/02/10 02:15:01;;;;;;;3.5;3.4;;;;;;;0.3;100.0;103360;;;;
2023/02/10 02:16:10;;;;;;;3.5;3.4;;;;;;;0.3;100.0;103360;;;;
2023/02/10 02:17:10;;;;;;;3.5;3.4;;;;;;;0.3;100.0;103360;;;;
2023/02/10 02:18:10;;;;;;;3.5;3.4;;;;;;;0.3;100.0;103360;;;;
2023/02/10 02:19:10;;;;;;;3.7;3.6;;;;;;;0.3;100.0;103360;;;;
2023/02/10 02:21:10;;;;;;;3.7;3.6;;;;;;;0.4;100.0;103360;;;;
2023/02/10 02:22:03;;;;;;;3.7;3.6;;;;;;;0.4;100.0;103360;;;;
2023/02/10 02:23:04;;;;;;;3.7;3.6;;;;;;;0.4;100.0;103350;;;;
2023/02/10 02:24:10;;;;;;;3.7;3.6;;;;;;;0.4;100.0;103350;;;;
2023/02/10 02:25:06;;;;;;;3.7;3.6;;;;;;;0.3;100.0;103360;;;;
2023/02/10 02:26:10;;;;;;;3.7;3.6;;;;;;;0.3;100.0;103360;;;;
2023/02/10 02:27:10;;;;;;;3.7;3.6;;;;;;;0.3;100.0;103360;;;;
2023/02/10 02:28:10;;;;;;;3.7;3.6;;;;;;;0.3;100.0;103360;;;;
2023/02/10 02:29:10;;;;;;;3.7;3.6;;;;;;;0.3;100.0;103370;;;;
2023/02/10 02:30:08;;;;;;;3.7;3.6;;;;;;;0.3;100.0;103370;;;;
2023/02/10 02:31:10;;;;;;;3.7;3.6;;;;;;;0.3;100.0;103380;;;;
2023/02/10 02:32:05;;;;;;;3.7;3.6;;;;;;;0.3;100.0;103380;;;;
2023/02/10 02:33:03;;;;;;;3.7;3.6;;;;;;;0.3;100.0;103370;;;;
2023/02/10 02:34:03;;;;;;;3.7;3.6;;;;;;;0.3;100.0;103370;;;;
2023/02/10 02:35:04;;;;;;;3.7;3.6;;;;;;;0.3;100.0;103380;;;;
2023/02/10 02:36:04;;;;;;;3.7;3.6;;;;;;;0.3;100.0;103380;;;;
2023/02/10 02:37:05;;;;;;;3.7;3.6;;;;;;;0.4;100.0;103380;;;;
2023/02/10 02:38:01;;;;;;;3.7;3.6;;;;;;;0.4;100.0;103380;;;;
2023/02/10 02:39:01;;;;;;;3.7;3.6;;;;;;;0.3;100.0;103380;;;;
2023/02/10 02:40:01;;;;;;;3.7;3.6;;;;;;;0.3;100.0;103380;;;;
2023/02/10 02:41:00;;;;;;;3.7;3.6;;;;;;;0.4;100.0;103380;;;;
2023/02/10 02:42:10;;;;;;;3.7;3.6;;;;;;;0.4;100.0;103380;;;;
2023/02/10 02:43:00;;;;;;;3.7;3.6;;;;;;;0.4;100.0;103370;;;;
2023/02/10 02:44:02;;;;;;;3.7;3.6;;;;;;;0.4;100.0;103370;;;;
2023/02/10 02:45:10;;;;;;;3.7;3.6;;;;;;;0.4;100.0;103370;;;;
2023/02/10 02:46:10;;;;;;;3.7;3.6;;;;;;;0.4;100.0;103370;;;;
2023/02/10 02:47:07;;;;;;;3.7;3.6;;;;;;;0.4;100.0;103370;;;;
2023/02/10 02:48:07;;;;;;;3.7;3.6;;;;;;;0.4;100.0;103370;;;;
2023/02/10 02:49:10;;;;;;;3.7;3.6;;;;;;;0.4;100.0;103370;;;;
2023/02/10 02:50:10;;;;;;;3.7;3.6;;;;;;;0.4;100.0;103370;;;;
2023/02/10 02:51:01;;;;;;;3.7;3.6;;;;;;;0.4;100.0;103360;;;;
2023/02/10 02:52:02;;;;;;;3.7;3.6;;;;;;;0.4;100.0;103360;;;;
2023/02/10 02:53:05;;;;;;;3.7;3.6;;;;;;;0.4;100.0;103360;;;;
2023/02/10 02:54:03;;;;;;;3.7;3.6;;;;;;;0.4;100.0;103360;;;;
2023/02/10 02:55:05;;;;;;;3.7;3.6;;;;;;;0.4;100.0;103360;;;;
2023/02/10 02:56:05;;;;;;;3.7;3.6;;;;;;;0.4;100.0;103360;;;;
2023/02/10 02:57:03;;;;;;;3.7;3.6;;;;;;;0.4;100.0;103360;;;;
2023/02/10 02:58:04;;;;;;;3.7;3.6;;;;;;;0.4;100.0;103360;;;;
2023/02/10 02:59:10;;;;;;;3.8;3.7;;;;;;;0.4;100.0;103360;;;;
2023/02/10 03:00:10;;;;;;;3.8;3.7;;;;;;;0.4;100.0;103360;;;;
2023/02/10 03:01:04;;;;;;;3.8;3.7;;;;;;;0.4;100.0;103360;;;;
2023/02/10 03:02:01;;;;;;;3.8;3.7;;;;;;;0.4;100.0;103360;;;;
2023/02/10 03:03:01;;;;;;;3.8;3.7;;;;;;;0.4;100.0;103360;;;;
2023/02/10 03:04:00;;;;;;;3.8;3.7;;;;;;;0.4;100.0;103360;;;;
2023/02/10 03:05:00;;;;;;;3.8;3.7;;;;;;;0.3;100.0;103370;;;;
2023/02/10 03:06:01;;;;;;;3.8;3.7;;;;;;;0.3;100.0;103370;;;;
2023/02/10 03:07:01;;;;;;;3.8;3.7;;;;;;;0.3;100.0;103370;;;;
2023/02/10 03:08:00;;;;;;;3.8;3.7;;;;;;;0.3;100.0;103370;;;;
2023/02/10 03:09:00;;;;;;;3.8;3.7;;;;;;;0.3;100.0;103370;;;;
2023/02/10 03:10:00;;;;;;;3.8;3.7;;;;;;;0.3;100.0;103370;;;;
2023/02/10 03:11:00;;;;;;;3.8;3.7;;;;;;;0.3;100.0;103370;;;;
2023/02/10 03:12:00;;;;;;;3.8;3.7;;;;;;;0.3;100.0;103370;;;;
2023/02/10 03:13:00;;;;;;;3.8;3.7;;;;;;;0.3;100.0;103380;;;;
2023/02/10 03:14:00;;;;;;;3.8;3.7;;;;;;;0.3;100.0;103380;;;;
2023/02/10 03:15:00;;;;;;;3.8;3.7;;;;;;;0.2;100.0;103380;;;;
2023/02/10 03:16:00;;;;;;;3.8;3.7;;;;;;;0.2;100.0;103380;;;;
2023/02/10 03:17:00;;;;;;;3.8;3.7;;;;;;;0.2;100.0;103390;;;;
2023/02/10 03:18:00;;;;;;;3.8;3.7;;;;;;;0.2;100.0;103390;;;;
2023/02/10 03:19:00;;;;;;;3.7;3.6;;;;;;;0.2;100.0;103390;;;;
2023/02/10 03:20:00;;;;;;;3.7;3.6;;;;;;;0.2;100.0;103390;;;;
2023/02/10 03:21:00;;;;;;;3.7;3.6;;;;;;;0.2;100.0;103390;;;;
2023/02/10 03:22:00;;;;;;;3.7;3.6;;;;;;;0.2;100.0;103390;;;;
2023/02/10 03:23:00;;;;;;;3.7;3.6;;;;;;;0.2;100.0;103390;;;;
2023/02/10 03:24:00;;;;;;;3.7;3.6;;;;;;;0.2;100.0;103390;;;;
2023/02/10 03:25:00;;;;;;;3.7;3.6;;;;;;;0.1;100.0;103400;;;;
2023/02/10 03:26:00;;;;;;;3.7;3.6;;;;;;;0.1;100.0;103400;;;;
2023/02/10 03:27:00;;;;;;;3.7;3.6;;;;;;;0.2;100.0;103400;;;;
2023/02/10 03:28:00;;;;;;;3.7;3.6;;;;;;;0.2;100.0;103400;;;;
2023/02/10 03:29:00;;;;;;;3.7;3.6;;;;;;;0.1;100.0;103400;;;;
2023/02/10 03:30:00;;;;;;;3.7;3.6;;;;;;;0.1;100.0;103400;;;;
2023/02/10 03:31:03;;;;;;;3.7;3.6;;;;;;;0.1;100.0;103400;;;;
2023/02/10 03:32:01;;;;;;;3.7;3.6;;;;;;;0.1;100.0;103400;;;;
2023/02/10 03:33:00;;;;;;;3.7;3.6;;;;;;;0.0;100.0;103400;;;;
2023/02/10 03:34:00;;;;;;;3.7;3.6;;;;;;;0.0;100.0;103400;;;;
2023/02/10 03:35:00;;;;;;;3.7;3.6;;;;;;;0.0;100.0;103400;;;;
2023/02/10 03:36:01;;;;;;;3.7;3.6;;;;;;;0.0;100.0;103400;;;;
2023/02/10 03:37:00;;;;;;;3.7;3.6;;;;;;;-0.0;100.0;103390;;;;
2023/02/10 03:38:00;;;;;;;3.7;3.6;;;;;;;-0.0;100.0;103390;;;;
2023/02/10 03:39:01;;;;;;;3.8;3.7;;;;;;;-0.0;100.0;103390;;;;
2023/02/10 03:40:00;;;;;;;3.8;3.7;;;;;;;-0.0;100.0;103390;;;;
2023/02/10 03:41:00;;;;;;;3.8;3.7;;;;;;;-0.1;100.0;103390;;;;
2023/02/10 03:42:00;;;;;;;3.8;3.7;;;;;;;-0.1;100.0;103390;;;;
2023/02/10 03:43:00;;;;;;;3.8;3.7;;;;;;;-0.1;100.0;103390;;;;
2023/02/10 03:44:00;;;;;;;3.8;3.7;;;;;;;-0.1;100.0;103390;;;;
2023/02/10 03:45:00;;;;;;;3.8;3.7;;;;;;;-0.1;100.0;103400;;;;
2023/02/10 03:46:01;;;;;;;3.8;3.7;;;;;;;-0.1;100.0;103400;;;;
2023/02/10 03:47:00;;;;;;;3.8;3.7;;;;;;;-0.1;100.0;103400;;;;
2023/02/10 03:48:00;;;;;;;3.8;3.7;;;;;;;-0.1;100.0;103400;;;;
2023/02/10 03:49:00;;;;;;;3.8;3.7;;;;;;;-0.1;100.0;103400;;;;
2023/02/10 03:50:00;;;;;;;3.8;3.7;;;;;;;-0.1;100.0;103400;;;;
2023/02/10 03:51:01;;;;;;;3.8;3.7;;;;;;;-0.2;100.0;103400;;;;
2023/02/10 03:52:00;;;;;;;3.8;3.7;;;;;;;-0.2;100.0;103400;;;;
2023/02/10 03:53:00;;;;;;;3.8;3.7;;;;;;;-0.2;100.0;103400;;;;
2023/02/10 03:54:00;;;;;;;3.8;3.7;;;;;;;-0.2;100.0;103400;;;;
2023/02/10 03:55:00;;;;;;;3.8;3.7;;;;;;;-0.2;100.0;103400;;;;
2023/02/10 03:56:00;;;;;;;3.8;3.7;;;;;;;-0.2;100.0;103400;;;;
2023/02/10 03:57:00;;;;;;;3.8;3.7;;;;;;;-0.2;100.0;103400;;;;
2023/02/10 03:58:01;;;;;;;3.8;3.7;;;;;;;-0.2;100.0;103400;;;;
2023/02/10 03:59:01;;;;;;;4.5;4.4;;;;;;;-0.1;100.0;103400;;;;
2023/02/10 04:00:00;;;;;;;4.5;4.4;;;;;;;-0.1;100.0;103400;;;;
2023/02/10 04:01:07;;;;;;;4.5;4.4;;;;;;;-0.2;100.0;103400;;;;
2023/02/10 04:02:00;;;;;;;4.5;4.4;;;;;;;-0.2;100.0;103400;;;;
2023/02/10 04:03:00;;;;;;;4.5;4.4;;;;;;;-0.2;100.0;103400;;;;
2023/02/10 04:04:00;;;;;;;4.5;4.4;;;;;;;-0.2;100.0;103400;;;;
2023/02/10 04:05:00;;;;;;;4.5;4.4;;;;;;;-0.2;100.0;103400;;;;
2023/02/10 04:06:00;;;;;;;4.5;4.4;;;;;;;-0.2;100.0;103400;;;;
2023/02/10 04:07:01;;;;;;;4.5;4.4;;;;;;;-0.3;100.0;103400;;;;
2023/02/10 04:08:00;;;;;;;4.5;4.4;;;;;;;-0.3;100.0;103400;;;;
2023/02/10 04:09:00;;;;;;;4.5;4.4;;;;;;;-0.2;100.0;103400;;;;
2023/02/10 04:10:00;;;;;;;4.5;4.4;;;;;;;-0.2;100.0;103400;;;;
2023/02/10 04:11:00;;;;;;;4.5;4.4;;;;;;;-0.3;100.0;103400;;;;
2023/02/10 04:12:00;;;;;;;4.5;4.4;;;;;;;-0.3;100.0;103400;;;;
2023/02/10 04:13:00;;;;;;;4.5;4.4;;;;;;;-0.3;100.0;103400;;;;
2023/02/10 04:14:00;;;;;;;4.5;4.4;;;;;;;-0.3;100.0;103400;;;;
2023/02/10 04:15:00;;;;;;;4.5;4.4;;;;;;;-0.3;100.0;103400;;;;
2023/02/10 04:16:02;;;;;;;4.5;4.4;;;;;;;-0.3;100.0;103400;;;;
2023/02/10 04:17:00;;;;;;;4.5;4.4;;;;;;;-0.3;100.0;103400;;;;
2023/02/10 04:18:00;;;;;;;4.5;4.4;;;;;;;-0.3;100.0;103400;;;;
2023/02/10 04:19:00;;;;;;;3.7;3.6;;;;;;;-0.3;100.0;103400;;;;
2023/02/10 04:20:00;;;;;;;3.7;3.6;;;;;;;-0.3;100.0;103400;;;;
2023/02/10 04:21:01;;;;;;;3.7;3.6;;;;;;;-0.3;100.0;103400;;;;
2023/02/10 04:22:00;;;;;;;3.7;3.6;;;;;;;-0.3;100.0;103400;;;;
2023/02/10 04:23:00;;;;;;;3.7;3.6;;;;;;;-0.3;100.0;103400;;;;
2023/02/10 04:24:00;;;;;;;3.7;3.6;;;;;;;-0.3;100.0;103400;;;;
2023/02/10 04:25:00;;;;;;;3.7;3.6;;;;;;;-0.2;100.0;103400;;;;
2023/02/10 04:26:00;;;;;;;3.7;3.6;;;;;;;-0.2;100.0;103400;;;;
2023/02/10 04:27:00;;;;;;;3.7;3.6;;;;;;;-0.3;100.0;103400;;;;
2023/02/10 04:28:00;;;;;;;3.7;3.6;;;;;;;-0.3;100.0;103400;;;;
2023/02/10 04:29:00;;;;;;;3.7;3.6;;;;;;;-0.2;100.0;103400;;;;
2023/02/10 04:30:00;;;;;;;3.7;3.6;;;;;;;-0.2;100.0;103400;;;;
2023/02/10 04:31:01;;;;;;;3.7;3.6;;;;;;;-0.2;100.0;103410;;;;
2023/02/10 04:32:00;;;;;;;3.7;3.6;;;;;;;-0.2;100.0;103410;;;;
2023/02/10 04:33:00;;;;;;;3.7;3.6;;;;;;;-0.3;100.0;103410;;;;
2023/02/10 04:34:00;;;;;;;3.7;3.6;;;;;;;-0.3;100.0;103410;;;;
2023/02/10 04:35:00;;;;;;;3.7;3.6;;;;;;;-0.3;100.0;103400;;;;
2023/02/10 04:36:02;;;;;;;3.7;3.6;;;;;;;-0.3;100.0;103400;;;;
2023/02/10 04:37:00;;;;;;;3.7;3.6;;;;;;;-0.3;100.0;103400;;;;
2023/02/10 04:38:03;;;;;;;3.7;3.6;;;;;;;-0.3;100.0;103400;;;;
2023/02/10 04:39:00;;;;;;;3.4;3.3;;;;;;;-0.3;100.0;103400;;;;
2023/02/10 04:40:00;;;;;;;3.4;3.3;;;;;;;-0.3;100.0;103400;;;;
2023/02/10 04:41:02;;;;;;;3.4;3.3;;;;;;;-0.3;100.0;103400;;;;
2023/02/10 04:42:00;;;;;;;3.4;3.3;;;;;;;-0.3;100.0;103400;;;;
2023/02/10 04:43:00;;;;;;;3.4;3.3;;;;;;;-0.4;100.0;103400;;;;
2023/02/10 04:44:00;;;;;;;3.4;3.3;;;;;;;-0.4;100.0;103400;;;;
2023/02/10 04:45:00;;;;;;;3.4;3.3;;;;;;;-0.4;100.0;103400;;;;
2023/02/10 04:46:03;;;;;;;3.4;3.3;;;;;;;-0.4;100.0;103400;;;;
2023/02/10 04:47:00;;;;;;;3.4;3.3;;;;;;;-0.2;100.0;103400;;;;
2023/02/10 04:48:00;;;;;;;3.4;3.3;;;;;;;-0.2;100.0;103400;;;;
2023/02/10 04:49:00;;;;;;;3.4;3.3;;;;;;;-0.2;100.0;103400;;;;
2023/02/10 04:50:00;;;;;;;3.4;3.3;;;;;;;-0.2;100.0;103400;;;;
2023/02/10 04:51:08;;;;;;;3.4;3.3;;;;;;;-0.3;100.0;103410;;;;
2023/02/10 04:52:00;;;;;;;3.4;3.3;;;;;;;-0.3;100.0;103410;;;;
2023/02/10 04:53:00;;;;;;;3.4;3.3;;;;;;;-0.4;100.0;103410;;;;
2023/02/10 04:54:00;;;;;;;3.4;3.3;;;;;;;-0.4;100.0;103410;;;;
2023/02/10 04:55:00;;;;;;;3.4;3.3;;;;;;;-0.4;100.0;103410;;;;
2023/02/10 04:56:00;;;;;;;3.4;3.3;;;;;;;-0.4;100.0;103410;;;;
2023/02/10 04:57:00;;;;;;;3.4;3.3;;;;;;;-0.4;100.0;103410;;;;
2023/02/10 04:58:00;;;;;;;3.4;3.3;;;;;;;-0.4;100.0;103410;;;;
2023/02/10 04:59:00;;;;;;;3.7;3.6;;;;;;;-0.3;100.0;103410;;;;
2023/02/10 05:00:00;;;;;;;3.7;3.6;;;;;;;-0.3;100.0;103410;;;;
2023/02/10 05:01:01;;;;;;;3.7;3.6;;;;;;;-0.3;100.0;103410;;;;
2023/02/10 05:02:01;;;;;;;3.7;3.6;;;;;;;-0.3;100.0;103410;;;;
2023/02/10 05:03:00;;;;;;;3.7;3.6;;;;;;;-0.4;100.0;103410;;;;
2023/02/10 05:04:00;;;;;;;3.7;3.6;;;;;;;-0.4;100.0;103410;;;;
2023/02/10 05:05:00;;;;;;;3.7;3.6;;;;;;;-0.4;100.0;103410;;;;
2023/02/10 05:06:05;;;;;;;3.7;3.6;;;;;;;-0.4;100.0;103410;;;;
2023/02/10 05:07:01;;;;;;;3.7;3.6;;;;;;;-0.4;100.0;103410;;;;
2023/02/10 05:08:00;;;;;;;3.7;3.6;;;;;;;-0.4;100.0;103410;;;;
2023/02/10 05:09:00;;;;;;;3.7;3.6;;;;;;;-0.4;100.0;103410;;;;
2023/02/10 05:10:00;;;;;;;3.7;3.6;;;;;;;-0.4;100.0;103410;;;;
2023/02/10 05:11:00;;;;;;;3.7;3.6;;;;;;;-0.4;100.0;103420;;;;
2023/02/10 05:12:00;;;;;;;3.7;3.6;;;;;;;-0.4;100.0;103420;;;;
2023/02/10 05:13:00;;;;;;;3.7;3.6;;;;;;;-0.4;100.0;103420;;;;
2023/02/10 05:14:00;;;;;;;3.7;3.6;;;;;;;-0.4;100.0;103420;;;;
2023/02/10 05:15:00;;;;;;;3.7;3.6;;;;;;;-0.4;100.0;103430;;;;
2023/02/10 05:16:02;;;;;;;3.7;3.6;;;;;;;-0.4;100.0;103430;;;;
2023/02/10 05:17:00;;;;;;;3.7;3.6;;;;;;;-0.4;100.0;103430;;;;
2023/02/10 05:18:00;;;;;;;3.7;3.6;;;;;;;-0.4;100.0;103430;;;;
2023/02/10 05:19:00;;;;;;;4.1;4.0;;;;;;;-0.4;100.0;103430;;;;
2023/02/10 05:20:00;;;;;;;4.1;4.0;;;;;;;-0.4;100.0;103430;;;;
2023/02/10 05:21:00;;;;;;;4.1;4.0;;;;;;;-0.4;100.0;103420;;;;
2023/02/10 05:22:00;;;;;;;4.1;4.0;;;;;;;-0.4;100.0;103420;;;;
2023/02/10 05:23:00;;;;;;;4.1;4.0;;;;;;;-0.4;100.0;103430;;;;
2023/02/10 05:24:00;;;;;;;4.1;4.0;;;;;;;-0.4;100.0;103430;;;;
2023/02/10 05:25:00;;;;;;;4.1;4.0;;;;;;;-0.3;100.0;103430;;;;
2023/02/10 05:26:00;;;;;;;4.1;4.0;;;;;;;-0.3;100.0;103430;;;;
2023/02/10 05:27:00;;;;;;;4.1;4.0;;;;;;;-0.3;100.0;103420;;;;
2023/02/10 05:28:00;;;;;;;4.1;4.0;;;;;;;-0.3;100.0;103420;;;;
2023/02/10 05:29:00;;;;;;;4.1;4.0;;;;;;;-0.3;100.0;103420;;;;
2023/02/10 05:30:00;;;;;;;4.1;4.0;;;;;;;-0.3;100.0;103420;;;;
2023/02/10 05:31:00;;;;;;;4.1;4.0;;;;;;;-0.3;100.0;103430;;;;
2023/02/10 05:32:00;;;;;;;4.1;4.0;;;;;;;-0.3;100.0;103430;;;;
2023/02/10 05:33:00;;;;;;;4.1;4.0;;;;;;;-0.2;100.0;103430;;;;
2023/02/10 05:34:00;;;;;;;4.1;4.0;;;;;;;-0.2;100.0;103430;;;;
2023/02/10 05:35:00;;;;;;;4.1;4.0;;;;;;;-0.1;100.0;103430;;;;
2023/02/10 05:36:00;;;;;;;4.1;4.0;;;;;;;-0.1;100.0;103430;;;;
2023/02/10 05:37:00;;;;;;;4.1;4.0;;;;;;;0.0;100.0;103430;;;;
2023/02/10 05:38:01;;;;;;;4.1;4.0;;;;;;;0.0;100.0;103430;;;;
2023/02/10 05:40:00;;;;;;;3.3;3.2;;;;;;;0.1;100.0;103430;;;;
2023/02/10 05:41:00;;;;;;;3.3;3.2;;;;;;;0.1;100.0;103430;;;;
2023/02/10 05:42:00;;;;;;;3.3;3.2;;;;;;;0.1;100.0;103430;;;;
2023/02/10 05:43:00;;;;;;;3.3;3.2;;;;;;;0.2;100.0;103430;;;;
2023/02/10 05:44:00;;;;;;;3.3;3.2;;;;;;;0.2;100.0;103430;;;;
2023/02/10 05:45:00;;;;;;;3.3;3.2;;;;;;;0.2;100.0;103440;;;;
2023/02/10 05:46:00;;;;;;;3.3;3.2;;;;;;;0.2;100.0;103440;;;;
2023/02/10 05:47:00;;;;;;;3.3;3.2;;;;;;;0.1;100.0;103440;;;;
2023/02/10 05:48:00;;;;;;;3.3;3.2;;;;;;;0.1;100.0;103440;;;;
2023/02/10 05:49:00;;;;;;;3.3;3.2;;;;;;;0.3;100.0;103430;;;;
2023/02/10 05:50:00;;;;;;;3.3;3.2;;;;;;;0.3;100.0;103430;;;;
2023/02/10 05:51:00;;;;;;;3.3;3.2;;;;;;;0.3;100.0;103430;;;;
2023/02/10 05:52:00;;;;;;;3.3;3.2;;;;;;;0.3;100.0;103430;;;;
2023/02/10 05:53:00;;;;;;;3.3;3.2;;;;;;;0.4;100.0;103430;;;;
2023/02/10 05:54:00;;;;;;;3.3;3.2;;;;;;;0.4;100.0;103430;;;;
2023/02/10 05:55:00;;;;;;;3.3;3.2;;;;;;;0.4;100.0;103430;;;;
2023/02/10 05:56:00;;;;;;;3.3;3.2;;;;;;;0.4;100.0;103430;;;;
2023/02/10 05:57:00;;;;;;;3.3;3.2;;;;;;;0.5;100.0;103430;;;;
2023/02/10 05:58:00;;;;;;;3.6;3.5;;;;;;;0.5;100.0;103430;;;;
2023/02/10 05:59:00;;;;;;;3.6;3.5;;;;;;;0.6;100.0;103440;;;;
2023/02/10 06:00:00;;;;;;;3.6;3.5;;;;;;;0.6;100.0;103440;;;;
2023/02/10 06:01:00;;;;;;;3.6;3.5;;;;;;;0.5;100.0;103440;;;;
2023/02/10 06:02:00;;;;;;;3.6;3.5;;;;;;;0.5;100.0;103440;;;;
2023/02/10 06:03:00;;;;;;;3.6;3.5;;;;;;;0.5;100.0;103440;;;;
2023/02/10 06:04:00;;;;;;;3.6;3.5;;;;;;;0.5;100.0;103440;;;;
2023/02/10 06:05:01;;;;;;;3.6;3.5;;;;;;;0.6;100.0;103440;;;;
2023/02/10 06:06:00;;;;;;;3.6;3.5;;;;;;;0.6;100.0;103440;;;;
2023/02/10 06:07:00;;;;;;;3.6;3.5;;;;;;;0.7;100.0;103440;;;;
2023/02/10 06:08:00;;;;;;;3.6;3.5;;;;;;;0.7;100.0;103440;;;;
2023/02/10 06:09:00;;;;;;;3.6;3.5;;;;;;;0.7;100.0;103440;;;;
2023/02/10 06:10:00;;;;;;;3.6;3.5;;;;;;;0.7;100.0;103440;;;;
2023/02/10 06:11:00;;;;;;;3.6;3.5;;;;;;;0.7;100.0;103440;;;;
2023/02/10 06:12:01;;;;;;;3.6;3.5;;;;;;;0.7;100.0;103440;;;;
2023/02/10 06:13:00;;;;;;;3.6;3.5;;;;;;;0.7;100.0;103440;;;;
2023/02/10 06:14:00;;;;;;;3.6;3.5;;;;;;;0.7;100.0;103440;;;;
2023/02/10 06:15:00;;;;;;;3.6;3.5;;;;;;;0.7;100.0;103440;;;;
2023/02/10 06:16:01;;;;;;;3.6;3.5;;;;;;;0.7;100.0;103440;;;;
2023/02/10 06:17:01;;;;;;;3.6;3.5;;;;;;;0.8;100.0;103440;;;;
2023/02/10 06:18:00;;;;;;;3.5;3.4;;;;;;;0.8;100.0;103440;;;;
2023/02/10 06:19:00;;;;;;;3.5;3.4;;;;;;;0.8;100.0;103440;;;;
2023/02/10 06:20:00;;;;;;;3.5;3.4;;;;;;;0.8;100.0;103440;;;;
2023/02/10 06:21:00;;;;;;;3.5;3.4;;;;;;;0.9;100.0;103440;;;;
2023/02/10 06:22:00;;;;;;;3.5;3.4;;;;;;;0.9;100.0;103440;;;;
2023/02/10 06:23:00;;;;;;;3.5;3.4;;;;;;;0.8;100.0;103440;;;;
2023/02/10 06:24:00;;;;;;;3.5;3.4;;;;;;;0.8;100.0;103440;;;;
2023/02/10 06:25:00;;;;;;;3.5;3.4;;;;;;;0.9;100.0;103430;;;;
2023/02/10 06:26:00;;;;;;;3.5;3.4;;;;;;;0.9;100.0;103430;;;;
2023/02/10 06:27:01;;;;;;;3.5;3.4;;;;;;;0.9;100.0;103430;;;;
2023/02/10 06:28:00;;;;;;;3.5;3.4;;;;;;;0.9;100.0;103430;;;;
2023/02/10 06:29:00;;;;;;;3.5;3.4;;;;;;;1.0;100.0;103430;;;;